createdAt,value
2023-04-18T00:01:24.996Z,63.09
2023-04-18T00:03:52.328Z,63.28
2023-04-18T00:06:22.130Z,62.96
2023-04-18T00:08:49.321Z,63.27
2023-04-18T00:11:16.345Z,63.40
2023-04-18T00:13:44.341Z,63.57
2023-04-18T00:16:13.315Z,63.47
2023-04-18T00:18:40.613Z,63.39
2023-04-18T00:21:08.692Z,63.51
2023-04-18T00:23:36.091Z,63.18
2023-04-18T00:26:03.410Z,63.30
2023-04-18T00:28:30.651Z,63.46
2023-04-18T00:30:57.657Z,63.27
2023-04-18T00:33:24.762Z,63.21
2023-04-18T00:35:53.443Z,63.90
2023-04-18T00:38:20.493Z,64.01
2023-04-18T00:40:48.319Z,64.28
2023-04-18T00:43:17.013Z,64.27
2023-04-18T00:45:44.570Z,64.43
2023-04-18T00:48:12.064Z,64.77
2023-04-18T00:50:41.685Z,64.95
2023-04-18T00:53:11.181Z,65.12
2023-04-18T00:55:39.607Z,65.07
2023-04-18T00:58:06.901Z,64.86
2023-04-18T01:00:34.393Z,65.05
2023-04-18T01:03:01.754Z,65.07
2023-04-18T01:05:29.027Z,65.20
2023-04-18T01:08:01.064Z,65.18
2023-04-18T01:10:29.907Z,65.46
2023-04-18T01:13:23.288Z,65.67
2023-04-18T01:15:51.702Z,65.78
2023-04-18T01:18:19.167Z,65.92
2023-04-18T01:20:54.908Z,66.32
2023-04-18T01:23:21.833Z,66.79
2023-04-18T01:25:51.935Z,66.86
2023-04-18T01:28:23.749Z,66.75
2023-04-18T01:30:50.801Z,67.52
2023-04-18T01:33:17.846Z,67.55
2023-04-18T01:35:47.384Z,67.73
2023-04-18T01:38:14.434Z,67.77
2023-04-18T01:40:41.428Z,67.96
2023-04-18T01:43:08.685Z,68.32
2023-04-18T01:45:38.083Z,67.85
2023-04-18T01:48:06.071Z,68.19
2023-04-18T01:50:33.432Z,67.99
2023-04-18T01:53:00.480Z,68.31
2023-04-18T01:55:27.503Z,68.48
2023-04-18T01:57:55.216Z,68.53
2023-04-18T02:00:22.694Z,68.56
2023-04-18T02:02:50.520Z,68.52
2023-04-18T02:05:17.755Z,68.65
2023-04-18T02:07:45.526Z,68.97
2023-04-18T02:10:12.617Z,68.99
2023-04-18T02:12:39.606Z,69.00
2023-04-18T02:15:07.436Z,68.95
2023-04-18T02:17:36.747Z,69.22
2023-04-18T02:20:04.732Z,69.31
2023-04-18T02:22:31.875Z,69.38
2023-04-18T02:25:00.805Z,69.56
2023-04-18T02:27:27.900Z,69.85
2023-04-18T02:29:57.185Z,69.73
2023-04-18T02:32:24.883Z,69.86
2023-04-18T02:34:51.949Z,70.05
2023-04-18T02:37:19.282Z,70.07
2023-04-18T02:39:46.369Z,70.39
2023-04-18T02:42:13.479Z,70.46
2023-04-18T02:44:40.620Z,70.74
2023-04-18T02:47:07.667Z,70.83
2023-04-18T02:49:38.294Z,70.77
2023-04-18T02:52:05.383Z,70.96
2023-04-18T02:54:32.363Z,71.10
2023-04-18T02:57:05.591Z,71.06
2023-04-18T02:59:53.335Z,71.72
2023-04-18T03:02:58.752Z,71.56
2023-04-18T03:05:35.613Z,71.67
2023-04-18T03:08:04.967Z,71.73
2023-04-18T03:10:32.036Z,71.65
2023-04-18T03:12:59.162Z,71.96
2023-04-18T03:15:28.247Z,71.86
2023-04-18T03:17:55.374Z,72.11
2023-04-18T03:20:23.801Z,72.23
2023-04-18T03:22:52.650Z,72.51
2023-04-18T03:25:24.324Z,72.32
2023-04-18T03:27:53.612Z,72.39
2023-04-18T03:30:22.928Z,72.50
2023-04-18T03:32:56.204Z,72.54
2023-04-18T03:35:23.719Z,72.61
2023-04-18T03:37:51.029Z,72.98
2023-04-18T03:40:26.531Z,72.93
2023-04-18T03:42:59.653Z,72.82
2023-04-18T03:45:27.004Z,73.24
2023-04-18T03:47:55.206Z,73.28
2023-04-18T03:50:24.445Z,73.31
2023-04-18T03:52:52.850Z,73.40
2023-04-18T03:55:20.765Z,73.42
2023-04-18T03:57:48.088Z,73.50
2023-04-18T04:00:22.846Z,73.42
2023-04-18T04:03:00.118Z,73.66
2023-04-18T04:05:28.046Z,73.60
2023-04-18T04:07:55.160Z,73.93
2023-04-18T04:10:23.178Z,73.61
2023-04-18T04:12:51.334Z,73.59
2023-04-18T04:15:19.001Z,73.45
2023-04-18T04:18:01.443Z,73.38
2023-04-18T04:20:29.088Z,73.45
2023-04-18T04:23:03.964Z,73.39
2023-04-18T04:25:34.082Z,73.35
2023-04-18T04:28:06.782Z,73.02
2023-04-18T04:30:41.712Z,73.29
2023-04-18T04:33:09.055Z,73.20
2023-04-18T04:35:36.784Z,73.17
2023-04-18T04:38:05.745Z,73.09
2023-04-18T04:40:40.356Z,73.16
2023-04-18T04:43:12.692Z,73.03
2023-04-18T04:45:42.389Z,73.18
2023-04-18T04:48:10.256Z,74.16
2023-04-18T04:50:40.366Z,74.40
2023-04-18T04:53:08.381Z,73.91
2023-04-18T04:55:36.142Z,72.43
2023-04-18T04:58:06.065Z,72.08
2023-04-18T05:00:44.223Z,71.86
2023-04-18T05:03:16.763Z,71.87
2023-04-18T05:05:48.182Z,71.87
2023-04-18T05:08:15.320Z,71.71
2023-04-18T05:10:43.346Z,71.68
2023-04-18T05:13:10.622Z,71.75
2023-04-18T05:15:37.598Z,71.55
2023-04-18T05:18:04.910Z,71.52
2023-04-18T05:20:32.050Z,71.54
2023-04-18T05:22:59.144Z,71.93
2023-04-18T05:25:35.216Z,71.62
2023-04-18T05:28:04.837Z,72.14
2023-04-18T05:30:31.985Z,72.02
2023-04-18T05:32:58.979Z,72.14
2023-04-18T05:35:26.209Z,71.73
2023-04-18T05:37:53.234Z,71.91
2023-04-18T05:40:20.416Z,71.85
2023-04-18T05:42:47.304Z,71.44
2023-04-18T05:45:14.335Z,71.52
2023-04-18T05:47:41.464Z,71.72
2023-04-18T05:50:09.221Z,71.30
2023-04-18T05:52:39.031Z,71.10
2023-04-18T05:55:07.133Z,71.38
2023-04-18T05:57:34.145Z,71.17
2023-04-18T06:00:01.088Z,71.09
2023-04-18T06:02:28.273Z,71.12
2023-04-18T06:04:56.719Z,70.78
2023-04-18T06:07:25.370Z,70.65
2023-04-18T06:09:53.976Z,70.91
2023-04-18T06:12:21.044Z,70.55
2023-04-18T06:14:49.398Z,71.17
2023-04-18T06:17:16.454Z,71.15
2023-04-18T06:19:43.392Z,71.18
2023-04-18T06:22:10.359Z,71.40
2023-04-18T06:24:37.434Z,71.41
2023-04-18T06:27:05.754Z,71.11
2023-04-18T06:29:34.658Z,71.10
2023-04-18T06:32:03.504Z,70.93
2023-04-18T06:34:30.506Z,71.28
2023-04-18T06:36:57.523Z,70.91
2023-04-18T06:39:24.661Z,70.96
2023-04-18T06:41:51.596Z,70.99
2023-04-18T06:44:28.042Z,70.40
2023-04-18T06:46:55.684Z,70.17
2023-04-18T06:49:26.492Z,69.78
2023-04-18T06:51:54.097Z,69.92
2023-04-18T06:54:21.138Z,69.54
2023-04-18T06:56:48.201Z,69.02
2023-04-18T06:59:15.270Z,68.74
2023-04-18T07:01:42.409Z,68.74
2023-04-18T07:04:09.748Z,68.53
2023-04-18T07:06:37.630Z,68.86
2023-04-18T07:09:04.675Z,68.90
2023-04-18T07:11:31.629Z,68.55
2023-04-18T07:13:58.640Z,68.05
2023-04-18T07:16:25.952Z,67.75
2023-04-18T07:18:53.046Z,67.35
2023-04-18T07:21:19.982Z,66.12
2023-04-18T07:23:46.956Z,65.95
2023-04-18T07:26:14.043Z,64.84
2023-04-18T07:28:41.083Z,64.53
2023-04-18T07:31:11.424Z,64.12
2023-04-18T07:33:38.813Z,63.05
2023-04-18T07:36:06.275Z,62.97
2023-04-18T07:38:35.267Z,62.15
2023-04-18T07:41:03.500Z,62.13
2023-04-18T07:43:30.922Z,62.91
2023-04-18T07:45:58.100Z,63.07
2023-04-18T07:48:28.115Z,63.10
2023-04-18T07:50:55.190Z,63.23
2023-04-18T07:53:22.238Z,63.53
2023-04-18T07:55:50.176Z,63.90
2023-04-18T07:58:17.748Z,63.59
2023-04-18T08:00:44.960Z,63.61
2023-04-18T08:03:13.012Z,63.47
2023-04-18T08:05:42.955Z,61.98
2023-04-18T08:08:11.876Z,61.58
2023-04-18T08:10:39.547Z,61.69
2023-04-18T08:13:06.940Z,61.02
2023-04-18T08:15:34.151Z,60.92
2023-04-18T08:18:01.913Z,60.47
2023-04-18T08:20:29.185Z,60.84
2023-04-18T08:25:26.289Z,60.25
2023-04-18T08:27:53.272Z,60.10
2023-04-18T08:30:20.489Z,60.12
2023-04-18T08:32:47.501Z,59.97
2023-04-18T08:35:14.606Z,59.18
2023-04-18T08:37:41.817Z,59.46
2023-04-18T08:40:09.181Z,59.20
2023-04-18T08:42:38.356Z,59.22
2023-04-18T08:45:07.026Z,59.02
2023-04-18T08:47:35.660Z,58.10
2023-04-18T08:50:03.185Z,57.04
2023-04-18T08:52:32.002Z,57.64
2023-04-18T08:54:58.969Z,58.25
2023-04-18T08:57:30.114Z,59.11
2023-04-18T09:00:00.685Z,59.30
2023-04-18T09:02:46.910Z,59.33
2023-04-18T09:05:19.732Z,58.55
2023-04-18T09:07:49.612Z,57.79
2023-04-18T09:10:34.161Z,58.09
2023-04-18T09:13:03.556Z,58.38
2023-04-18T09:15:31.289Z,58.80
2023-04-18T09:18:02.777Z,58.77
2023-04-18T09:20:35.852Z,59.02
2023-04-18T09:23:14.482Z,58.75
2023-04-18T09:25:44.301Z,58.92
2023-04-18T09:28:30.687Z,59.47
2023-04-18T09:31:17.897Z,59.66
2023-04-18T09:33:56.690Z,59.59
2023-04-18T09:36:31.146Z,58.86
2023-04-18T09:38:58.379Z,57.78
2023-04-18T09:41:25.437Z,58.30
2023-04-18T09:44:17.115Z,58.52
2023-04-18T09:46:47.174Z,58.27
2023-04-18T09:49:16.132Z,58.39
2023-04-18T09:51:44.791Z,57.96
2023-04-18T09:54:16.348Z,57.49
2023-04-18T09:56:50.373Z,57.10
2023-04-18T09:59:41.051Z,56.88
2023-04-18T10:02:19.695Z,56.65
2023-04-18T10:04:48.902Z,56.52
2023-04-18T10:07:17.587Z,55.83
2023-04-18T10:09:49.244Z,55.82
2023-04-18T10:12:18.454Z,55.03
2023-04-18T10:14:45.892Z,54.79
2023-04-18T10:17:14.923Z,55.01
2023-04-18T10:19:44.267Z,54.13
2023-04-18T10:22:12.250Z,53.09
2023-04-18T10:24:49.681Z,52.87
2023-04-18T10:27:18.797Z,53.25
2023-04-18T10:29:51.691Z,53.76
2023-04-18T10:32:23.453Z,54.64
2023-04-18T10:34:53.588Z,55.07
2023-04-18T10:37:20.684Z,55.46
2023-04-18T10:40:11.073Z,56.61
2023-04-18T10:42:47.112Z,57.13
2023-04-18T10:45:25.298Z,58.21
2023-04-18T10:48:32.670Z,58.90
2023-04-18T10:51:18.903Z,58.97
2023-04-18T10:53:57.450Z,60.42
2023-04-18T10:56:26.114Z,60.73
2023-04-18T10:58:53.822Z,60.12
2023-04-18T11:01:33.177Z,59.80
2023-04-18T11:04:01.290Z,59.62
2023-04-18T11:06:29.084Z,59.39
2023-04-18T11:09:13.725Z,58.41
2023-04-18T11:11:41.833Z,58.25
2023-04-18T11:14:09.009Z,58.94
2023-04-18T11:16:36.406Z,59.32
2023-04-18T11:19:23.539Z,59.16
2023-04-18T11:21:51.799Z,59.58
2023-04-18T11:24:24.098Z,60.16
2023-04-18T11:26:55.657Z,60.23
2023-04-18T11:29:22.959Z,60.67
2023-04-18T11:31:55.283Z,60.40
2023-04-18T11:34:30.743Z,60.35
2023-04-18T11:36:58.203Z,59.94
2023-04-18T11:39:25.499Z,59.69
2023-04-18T11:41:52.974Z,58.50
2023-04-18T11:44:24.922Z,58.50
2023-04-18T11:46:53.084Z,57.77
2023-04-18T11:49:32.097Z,56.19
2023-04-18T11:52:01.075Z,57.38
2023-04-18T11:54:42.198Z,57.09
2023-04-18T11:57:21.352Z,57.09
2023-04-18T11:59:56.808Z,56.48
2023-04-18T12:02:40.499Z,56.26
2023-04-18T12:05:08.188Z,56.49
2023-04-18T12:07:47.912Z,56.32
2023-04-18T12:10:28.158Z,57.06
2023-04-18T12:13:00.935Z,56.69
2023-04-18T12:15:29.810Z,56.65
2023-04-18T12:18:00.747Z,57.32
2023-04-18T12:20:39.928Z,55.26
2023-04-18T12:23:07.797Z,55.09
2023-04-18T12:25:35.083Z,56.33
2023-04-18T12:28:14.809Z,56.79
2023-04-18T12:30:42.402Z,56.50
2023-04-18T12:33:09.665Z,57.00
2023-04-18T12:35:36.720Z,57.50
2023-04-18T12:38:07.986Z,57.47
2023-04-18T12:40:35.052Z,57.53
2023-04-18T12:43:03.803Z,57.55
2023-04-18T12:45:32.900Z,57.37
2023-04-18T12:48:00.238Z,57.55
2023-04-18T12:50:27.509Z,58.44
2023-04-18T12:52:59.116Z,57.37
2023-04-18T12:55:26.996Z,57.21
2023-04-18T12:57:55.621Z,57.71
2023-04-18T13:00:28.014Z,57.25
2023-04-18T13:02:55.940Z,56.77
2023-04-18T13:05:29.165Z,56.62
2023-04-18T13:08:15.139Z,56.73
2023-04-18T13:10:43.983Z,56.24
2023-04-18T13:13:11.005Z,56.39
2023-04-18T13:15:39.756Z,57.13
2023-04-18T13:18:07.186Z,58.04
2023-04-18T13:20:34.405Z,57.45
2023-04-18T13:23:04.417Z,58.32
2023-04-18T13:25:31.642Z,58.26
2023-04-18T13:28:00.772Z,57.76
2023-04-18T13:30:28.119Z,57.21
2023-04-18T13:32:55.346Z,57.10
2023-04-18T13:35:22.474Z,56.90
2023-04-18T13:37:49.611Z,56.70
2023-04-18T13:40:16.622Z,56.88
2023-04-18T13:42:43.636Z,56.76
2023-04-18T13:45:11.196Z,56.80
2023-04-18T13:47:38.369Z,57.10
2023-04-18T13:50:06.505Z,56.49
2023-04-18T13:52:33.472Z,56.99
2023-04-18T13:55:01.074Z,56.46
2023-04-18T13:57:28.451Z,55.56
2023-04-18T13:59:55.585Z,53.19
2023-04-18T14:02:22.903Z,53.28
2023-04-18T14:04:51.756Z,53.36
2023-04-18T14:07:18.805Z,52.68
2023-04-18T14:09:48.162Z,51.98
2023-04-18T14:12:15.280Z,50.44
2023-04-18T14:14:42.283Z,51.10
2023-04-18T14:17:09.249Z,50.41
2023-04-18T14:19:36.607Z,50.34
2023-04-18T14:22:03.614Z,51.44
2023-04-18T14:24:30.619Z,51.07
2023-04-18T14:26:57.507Z,52.05
2023-04-18T14:29:24.559Z,52.06
2023-04-18T14:31:51.524Z,50.74
2023-04-18T14:34:18.558Z,50.54
2023-04-18T14:36:45.616Z,51.50
2023-04-18T14:39:13.244Z,51.46
2023-04-18T14:41:40.454Z,51.74
2023-04-18T14:44:07.408Z,51.55
2023-04-18T14:46:34.484Z,51.95
2023-04-18T14:49:01.499Z,51.70
2023-04-18T14:51:28.434Z,52.40
2023-04-18T14:53:55.627Z,50.80
2023-04-18T14:56:24.242Z,50.91
2023-04-18T14:58:51.303Z,50.82
2023-04-18T15:01:18.602Z,50.21
2023-04-18T15:03:46.092Z,50.34
2023-04-18T15:06:13.343Z,50.89
2023-04-18T15:08:40.587Z,51.41
2023-04-18T15:11:08.239Z,49.96
2023-04-18T15:13:35.825Z,50.52
2023-04-18T15:16:03.222Z,50.35
2023-04-18T15:18:30.327Z,50.44
2023-04-18T15:21:00.033Z,50.55
2023-04-18T15:23:28.290Z,50.76
2023-04-18T15:25:56.322Z,50.78
2023-04-18T15:28:23.345Z,50.56
2023-04-18T15:30:50.516Z,50.09
2023-04-18T15:33:19.071Z,50.04
2023-04-18T15:35:47.756Z,50.56
2023-04-18T15:38:14.848Z,50.76
2023-04-18T15:40:43.433Z,50.60
2023-04-18T15:43:10.570Z,51.16
2023-04-18T15:45:37.564Z,50.97
2023-04-18T15:48:04.852Z,51.43
2023-04-18T15:50:33.638Z,51.25
2023-04-18T15:53:01.922Z,50.63
2023-04-18T15:55:29.007Z,49.51
2023-04-18T15:57:56.267Z,49.40
2023-04-18T16:00:23.959Z,49.42
2023-04-18T16:02:51.331Z,49.24
2023-04-18T16:05:18.545Z,49.49
2023-04-18T16:07:45.764Z,49.71
2023-04-18T16:10:15.069Z,50.12
2023-04-18T16:12:42.191Z,50.49
2023-04-18T16:15:10.060Z,50.65
2023-04-18T16:17:38.037Z,50.67
2023-04-18T16:20:08.264Z,51.20
2023-04-18T16:22:35.929Z,50.95
2023-04-18T16:25:04.527Z,50.99
2023-04-18T16:27:32.220Z,50.50
2023-04-18T16:29:59.306Z,50.50
2023-04-18T16:32:27.614Z,49.31
2023-04-18T16:34:54.664Z,49.46
2023-04-18T16:37:21.769Z,49.08
2023-04-18T16:39:48.723Z,49.54
2023-04-18T16:42:16.411Z,49.89
2023-04-18T16:44:45.158Z,50.19
2023-04-18T16:47:12.167Z,49.62
2023-04-18T16:49:39.435Z,49.55
2023-04-18T16:52:06.441Z,49.68
2023-04-18T16:54:33.460Z,49.23
2023-04-18T16:57:00.854Z,49.14
2023-04-18T16:59:27.883Z,49.31
2023-04-18T17:01:54.994Z,48.61
2023-04-18T17:04:23.144Z,49.09
2023-04-18T17:06:52.197Z,49.40
2023-04-18T17:09:19.754Z,49.92
2023-04-18T17:11:46.947Z,50.64
2023-04-18T17:14:15.029Z,51.16
2023-04-18T17:16:43.055Z,50.97
2023-04-18T17:19:11.131Z,50.82
2023-04-18T17:21:38.461Z,49.40
2023-04-18T17:24:07.043Z,50.15
2023-04-18T17:26:36.884Z,50.60
2023-04-18T17:29:04.773Z,51.03
2023-04-18T17:31:32.531Z,50.70
2023-04-18T17:34:00.713Z,50.65
2023-04-18T17:36:27.963Z,50.28
2023-04-18T17:38:55.966Z,50.39
2023-04-18T17:41:23.225Z,50.10
2023-04-18T17:43:53.320Z,50.38
2023-04-18T17:46:20.443Z,50.43
2023-04-18T17:48:48.592Z,50.37
2023-04-18T17:51:19.329Z,50.76
2023-04-18T17:53:46.875Z,50.38
2023-04-18T17:56:13.854Z,50.53
2023-04-18T17:58:41.222Z,50.23
2023-04-18T18:01:18.773Z,50.92
2023-04-18T18:03:47.213Z,50.99
2023-04-18T18:06:15.574Z,51.50
2023-04-18T18:08:43.272Z,51.95
2023-04-18T18:11:10.866Z,52.13
2023-04-18T18:13:40.851Z,52.78
2023-04-18T18:16:08.804Z,53.29
2023-04-18T18:18:36.837Z,53.72
2023-04-18T18:21:04.014Z,54.03
2023-04-18T18:23:31.307Z,54.63
2023-04-18T18:25:58.367Z,55.19
2023-04-18T18:28:25.454Z,55.85
2023-04-18T18:30:53.513Z,56.31
2023-04-18T18:33:20.756Z,56.82
2023-04-18T18:35:47.664Z,57.07
2023-04-18T18:38:14.608Z,57.87
2023-04-18T18:40:41.640Z,57.73
2023-04-18T18:43:08.655Z,58.45
2023-04-18T18:45:35.636Z,59.09
2023-04-18T18:48:03.954Z,59.66
2023-04-18T18:50:31.043Z,59.70
2023-04-18T18:52:58.027Z,60.10
2023-04-18T18:55:25.038Z,60.68
2023-04-18T18:57:52.008Z,61.05
2023-04-18T19:00:19.406Z,61.43
2023-04-18T19:02:46.649Z,62.01
2023-04-18T19:05:13.934Z,62.33
2023-04-18T19:07:43.813Z,62.78
2023-04-18T19:10:11.173Z,63.04
2023-04-18T19:12:38.357Z,63.24
2023-04-18T19:15:06.479Z,63.53
2023-04-18T19:17:33.581Z,63.72
2023-04-18T19:20:01.615Z,64.08
2023-04-18T19:22:30.023Z,64.30
2023-04-18T19:24:57.453Z,64.77
2023-04-18T19:27:24.442Z,64.70
2023-04-18T19:29:51.474Z,65.01
2023-04-18T19:32:18.549Z,65.11
2023-04-18T19:34:45.713Z,65.26
2023-04-18T19:37:12.726Z,65.47
2023-04-18T19:39:39.754Z,65.82
2023-04-18T19:42:07.400Z,65.94
2023-04-18T19:44:34.897Z,66.04
2023-04-18T19:47:01.978Z,66.35
2023-04-18T19:49:29.116Z,66.36
2023-04-18T19:51:56.213Z,66.39
2023-04-18T19:54:23.127Z,66.45
2023-04-18T19:56:50.479Z,66.43
2023-04-18T19:59:17.435Z,66.69
2023-04-18T20:01:44.660Z,66.46
2023-04-18T20:04:11.904Z,66.51
2023-04-18T20:06:39.030Z,66.43
2023-04-18T20:09:06.289Z,66.39
2023-04-18T20:11:33.573Z,66.79
2023-04-18T20:14:00.997Z,66.85
2023-04-18T20:16:28.082Z,66.67
2023-04-18T20:18:56.038Z,66.98
2023-04-18T20:21:23.054Z,67.02
2023-04-18T20:23:50.015Z,66.96
2023-04-18T20:26:16.917Z,66.86
2023-04-18T20:28:43.969Z,66.93
2023-04-18T20:31:12.218Z,67.16
2023-04-18T20:33:39.415Z,67.46
2023-04-18T20:36:07.452Z,67.62
2023-04-18T20:38:34.618Z,67.69
2023-04-18T20:41:02.091Z,67.79
2023-04-18T20:43:29.089Z,67.95
2023-04-18T20:45:58.625Z,68.25
2023-04-18T20:48:25.810Z,68.02
2023-04-18T20:50:52.860Z,68.31
2023-04-18T20:53:21.736Z,68.10
2023-04-18T20:55:49.145Z,68.08
2023-04-18T20:58:16.198Z,68.12
2023-04-18T21:00:44.587Z,68.27
2023-04-18T21:03:15.843Z,68.32
2023-04-18T21:05:44.929Z,68.41
2023-04-18T21:08:12.101Z,68.66
2023-04-18T21:10:39.692Z,68.69
2023-04-18T21:13:06.792Z,68.85
2023-04-18T21:15:35.595Z,68.86
2023-04-18T21:18:02.848Z,69.17
2023-04-18T21:20:30.043Z,68.98
2023-04-18T21:22:57.009Z,69.11
2023-04-18T21:25:24.018Z,69.00
2023-04-18T21:27:51.264Z,69.30
2023-04-18T21:30:18.305Z,69.32
2023-04-18T21:32:47.197Z,69.35
2023-04-18T21:35:16.046Z,69.62
2023-04-18T21:37:44.183Z,69.90
2023-04-18T21:40:11.538Z,69.96
2023-04-18T21:42:38.580Z,69.89
2023-04-18T21:45:06.545Z,70.19
2023-04-18T21:47:33.519Z,69.95
2023-04-18T21:50:00.491Z,70.34
2023-04-18T21:52:27.413Z,70.05
2023-04-18T21:54:54.448Z,70.46
2023-04-18T21:57:21.733Z,70.75
2023-04-18T21:59:48.784Z,70.71
2023-04-18T22:02:15.957Z,71.14
2023-04-18T22:04:44.129Z,71.00
2023-04-18T22:07:12.407Z,71.04
2023-04-18T22:09:39.830Z,71.17
2023-04-18T22:12:07.701Z,71.13
2023-04-18T22:14:35.180Z,71.42
2023-04-18T22:17:04.705Z,71.46
2023-04-18T22:19:32.381Z,71.60
2023-04-18T22:21:59.359Z,71.93
2023-04-18T22:24:26.344Z,71.72
2023-04-18T22:26:53.722Z,71.62
2023-04-18T22:29:20.890Z,71.40
2023-04-18T22:31:47.805Z,71.56
2023-04-18T22:34:14.972Z,71.33
2023-04-18T22:36:42.747Z,71.29
2023-04-18T22:39:09.870Z,71.26
2023-04-18T22:41:36.912Z,71.17
2023-04-18T22:44:04.707Z,70.99
2023-04-18T22:46:32.837Z,70.95
2023-04-18T22:49:00.051Z,70.92
2023-04-18T22:51:28.640Z,70.50
2023-04-18T22:53:56.513Z,70.39
2023-04-18T22:56:23.658Z,70.27
2023-04-18T22:58:50.968Z,69.92
2023-04-18T23:01:18.491Z,69.79
2023-04-18T23:03:45.915Z,69.40
2023-04-18T23:06:12.980Z,69.40
2023-04-18T23:08:39.965Z,69.57
2023-04-18T23:11:06.905Z,69.37
2023-04-18T23:13:33.861Z,69.24
2023-04-18T23:16:00.888Z,69.24
2023-04-18T23:18:30.742Z,69.24
2023-04-18T23:20:59.753Z,69.47
2023-04-18T23:23:27.001Z,69.39
2023-04-18T23:25:53.992Z,69.35
2023-04-18T23:28:21.362Z,69.25
2023-04-18T23:30:50.110Z,69.57
2023-04-18T23:33:17.136Z,69.78
2023-04-18T23:35:44.236Z,69.79
2023-04-18T23:38:11.211Z,69.56
2023-04-18T23:40:38.161Z,69.67
2023-04-18T23:43:05.136Z,69.89
2023-04-18T23:45:32.181Z,69.73
2023-04-18T23:47:59.163Z,69.95
2023-04-18T23:50:26.353Z,69.96
2023-04-18T23:52:53.352Z,69.87
2023-04-18T23:55:20.465Z,70.17
2023-04-18T23:57:47.404Z,70.18
